Date,TemperatureHighF,TemperatureAvgF,TemperatureLowF,DewpointHighF,DewpointAvgF,DewpointLowF,HumidityHigh,HumidityAvg,HumidityLow,PressureMaxIn,PressureMinIn,WindSpeedMaxMPH,WindSpeedAvgMPH,GustSpeedMaxMPH,PrecipitationSumIn
2014-1-1,24.2,20.0,16.1,19.5,16.3,13.4,89,85,80,30.34,30.25,15,2,15,0.00
2014-1-2,17.3,12.0,3.4,13.3,8.3,-0.3,89,85,81,30.65,30.33,15,1,15,0.00
2014-1-3,27.7,15.0,-0.1,17.9,8.4,-3.3,87,76,63,30.64,30.00,18,2,20,0.00
2014-1-4,39.5,29.6,18.7,28.6,21.7,16.0,89,73,62,30.18,29.97,14,1,16,0.04
2014-1-5,18.8,10.6,-2.0,16.1,6.9,-9.5,90,85,69,30.54,30.14,26,6,26,0.00
2014-1-6,-0.9,-5.3,-10.4,-9.2,-12.3,-16.7,75,71,66,30.65,30.53,21,5,21,0.00
2014-1-7,20.0,7.3,-4.7,11.1,0.3,-10.6,82,73,58,30.58,30.31,11,1,11,0.00
2014-1-8,17.6,14.3,8.5,12.3,9.5,4.1,85,81,74,30.62,30.39,10,1,10,0.00
2014-1-9,31.2,22.8,14.6,28.8,19.2,9.8,91,86,80,30.60,30.23,11,1,11,0.00
2014-1-10,44.2,37.9,31.2,42.3,36.0,28.8,93,93,91,30.23,29.64,17,2,17,0.68
2014-1-11,44.4,37.4,28.5,37.9,32.6,25.4,93,83,66,30.04,29.64,18,2,21,0.00
2014-1-12,57.9,44.6,27.9,38.8,32.8,25.1,90,66,46,30.04,29.65,21,1,23,0.00
2014-1-13,48.7,39.3,30.6,37.9,32.4,27.2,88,77,57,29.97,29.67,19,1,19,0.00
2014-1-14,40.7,33.9,24.4,35.3,24.8,14.7,88,70,55,30.23,29.80,22,3,23,0.01
2014-1-15,29.0,22.4,15.7,18.3,13.5,9.5,77,68,59,30.36,29.99,17,2,17,0.00
2014-1-16,43.7,32.7,14.4,31.7,24.7,6.1,88,73,48,30.05,29.76,24,4,28,0.02
2014-1-17,22.9,15.9,10.1,12.7,8.6,2.2,81,72,63,30.24,30.05,19,2,19,0.00
2014-1-18,41.0,27.7,17.0,34.5,21.1,11.3,88,76,60,30.18,29.72,22,2,22,0.01
2014-1-19,51.9,35.9,20.0,31.8,24.9,15.5,84,66,45,30.16,29.81,20,3,22,0.00
2014-1-20,46.3,39.4,24.3,34.5,31.4,21.4,89,74,55,30.19,29.86,23,1,25,0.00
2014-1-21,24.2,12.8,5.9,21.2,5.4,-99.9,89,74,61,30.56,30.20,23,2,23,0.00
2014-1-22,27.3,17.9,3.1,17.3,9.2,-5.8,76,68,54,30.58,30.16,21,3,21,0.00
2014-1-23,13.2,5.0,-1.4,-0.2,-4.4,-8.5,75,65,50,30.91,30.59,16,2,16,0.00
2014-1-24,38.3,23.3,5.6,20.8,7.7,-1.3,75,52,39,30.81,29.76,27,4,29,0.00
2014-1-25,41.0,31.7,22.2,34.4,13.8,-1.2,83,49,26,30.10,29.73,18,4,27,0.00
2014-1-26,51.4,38.5,14.9,34.3,23.7,-3.9,74,55,37,30.25,29.64,29,5,32,0.00
2014-1-27,14.7,8.1,3.1,-0.8,-5.9,-8.0,65,52,42,30.68,30.24,21,3,21,0.00
2014-1-28,18.9,9.7,0.6,0.9,-2.7,-7.3,76,58,40,30.69,30.47,17,1,17,0.00
2014-1-29,36.7,23.8,11.0,13.0,7.8,0.4,71,52,34,30.47,30.08,15,1,21,0.00
2014-1-30,37.8,32.5,24.7,31.5,19.4,12.7,89,61,41,30.14,29.83,24,2,27,0.00
2014-1-31,24.6,19.1,17.0,18.7,14.9,12.5,89,83,74,30.31,30.12,7,1,12,0.00
2014-2-1,28.4,23.6,19.9,26.4,21.0,17.2,98,90,88,30.31,29.97,10,1,11,0.00
2014-2-2,23.4,12.9,4.4,20.4,6.9,-0.8,88,77,67,30.53,30.31,9,0,9,0.00
2014-2-3,26.5,12.4,-2.1,14.3,6.0,-5.5,88,76,54,30.58,30.46,6,0,6,0.07
2014-2-4,21.3,18.3,14.0,18.6,15.1,9.7,90,87,80,30.49,30.21,16,2,16,0.00
2014-2-5,18.5,13.2,3.2,16.1,10.3,-0.3,90,88,85,30.76,30.20,18,3,18,0.00
2014-2-6,11.1,3.5,-4.4,5.7,-0.7,-8.0,85,82,78,30.79,30.65,13,1,13,0.00
2014-2-7,17.0,8.6,-1.3,9.3,3.1,-4.5,92,78,68,30.65,30.44,7,0,9,0.00
2014-2-8,26.1,20.7,14.5,23.1,16.4,8.1,92,83,75,30.43,30.25,11,0,11,0.00
2014-2-9,24.6,17.6,5.8,21.2,12.2,-1.4,89,79,69,30.58,30.26,12,1,13,0.00
2014-2-10,12.8,4.8,-1.8,1.8,-2.6,-6.5,81,71,58,30.69,30.58,9,0,10,0.00
2014-2-11,19.9,6.8,-5.1,5.4,-1.5,-9.0,86,70,48,30.72,30.47,7,0,7,0.00
2014-2-12,35.0,20.2,8.7,16.2,8.4,1.0,75,61,41,30.48,30.12,11,0,11,0.02
2014-2-13,41.6,30.7,18.0,32.0,22.3,10.7,82,71,63,30.12,29.79,22,2,23,0.11
2014-2-14,30.3,19.9,10.4,23.8,15.2,5.7,89,82,69,30.26,29.78,15,1,15,0.01
2014-2-15,27.6,14.8,4.9,21.6,9.9,1.8,88,81,69,30.28,30.04,13,0,14,0.00
2014-2-16,30.7,27.3,25.3,26.1,21.8,19.5,92,80,68,30.39,30.09,17,1,17,0.00
2014-2-17,44.1,33.5,25.0,36.8,28.7,20.3,91,83,72,30.25,29.93,18,2,18,0.45
2014-2-18,58.0,47.2,36.4,35.5,31.6,27.9,75,56,37,30.09,29.78,20,1,20,0.00
2014-2-19,49.2,42.2,33.4,39.6,34.2,29.4,92,74,58,30.14,29.76,24,2,24,0.30
2014-2-20,63.3,42.5,36.5,57.4,37.9,27.9,92,84,70,29.77,29.22,40,6,42,0.25
2014-2-21,52.1,39.3,28.9,29.6,25.2,18.5,75,58,41,30.03,29.70,33,5,33,0.00
2014-2-22,42.3,35.2,28.4,33.7,27.0,11.7,84,72,47,30.24,30.02,14,1,15,0.00
2014-2-23,32.5,26.7,22.8,18.8,16.0,13.1,73,64,49,30.49,30.24,10,1,15,0.00
2014-2-24,28.2,25.1,22.2,19.4,16.0,13.0,82,68,56,30.53,30.39,11,0,11,0.00
2014-2-25,24.0,18.7,14.0,19.7,11.6,2.8,88,74,56,30.54,30.41,17,1,17,0.00
2014-2-26,25.9,16.2,3.6,13.9,2.8,-6.7,68,56,38,30.56,30.02,23,4,25,0.00
2014-2-27,25.4,16.8,10.5,16.3,1.8,-7.6,70,52,40,30.35,30.02,20,2,20,0.00
2014-2-28,47.2,29.8,12.4,23.5,14.5,1.6,83,54,36,30.25,30.00,18,3,19,0.00
2014-3-1,40.5,24.1,12.5,25.9,17.2,9.1,86,75,48,30.51,30.09,16,2,16,0.00
2014-3-2,12.5,5.4,0.3,9.1,-0.2,-7.5,92,77,68,30.68,30.50,18,4,18,0.00
2014-3-3,20.6,8.3,-5.0,8.4,-1.8,-10.8,83,64,48,30.72,30.45,14,1,14,0.01
2014-3-4,39.3,27.2,15.6,21.7,14.7,8.1,75,60,43,30.47,30.22,11,1,11,0.05
2014-3-5,36.4,30.6,25.3,25.4,22.3,19.3,85,71,59,30.47,30.25,16,4,18,0.00
2014-3-6,45.0,33.5,23.6,29.5,24.1,20.0,87,70,43,30.46,30.15,6,1,10,0.00
2014-3-7,59.5,44.4,33.1,38.7,31.8,25.1,86,63,46,30.15,29.96,11,1,15,0.00
2014-3-8,37.2,34.9,31.2,33.6,31.3,26.5,89,87,82,30.43,30.12,12,1,12,0.00
2014-3-9,55.6,40.9,25.6,37.1,30.7,22.5,90,69,49,30.44,30.02,18,1,19,0.00
2014-3-10,62.7,52.3,43.1,42.4,38.0,32.8,73,59,46,30.02,29.78,18,1,18,0.00
2014-3-11,70.5,52.4,34.9,52.4,41.4,31.8,89,67,50,29.86,29.59,25,3,27,0.07
2014-3-12,40.5,35.0,30.9,32.8,27.7,23.9,96,76,56,30.27,29.85,15,3,21,0.09
2014-3-13,62.7,44.5,26.7,39.3,30.9,22.9,87,62,36,30.26,29.94,19,1,19,0.00
2014-3-14,62.9,53.8,43.3,37.2,31.6,26.8,55,43,30,30.09,29.81,26,3,26,0.00
2014-3-15,62.0,46.8,32.2,40.4,32.9,26.7,81,60,39,30.17,30.02,24,4,24,0.00
2014-3-16,38.4,28.8,21.0,31.8,23.2,15.4,90,80,68,30.39,30.16,23,6,23,0.00
2014-3-17,44.6,31.5,16.8,24.5,19.0,13.6,92,63,40,30.27,29.84,13,1,13,0.04
2014-3-18,59.2,47.7,37.1,42.3,35.2,21.5,83,63,46,29.85,29.62,28,6,28,0.00
2014-3-19,52.9,43.1,34.2,46.1,35.6,28.1,87,75,58,30.23,29.63,22,3,22,0.00
2014-3-20,66.5,48.4,33.3,39.7,33.3,28.1,82,59,30,30.22,29.97,14,1,14,0.00
2014-3-21,68.6,51.9,37.0,40.2,36.2,32.6,85,58,33,30.16,29.83,19,2,19,0.00
2014-3-22,43.4,36.2,30.3,32.6,25.0,16.0,79,65,42,30.53,30.16,11,3,18,0.00
2014-3-23,38.5,30.2,23.0,18.5,14.1,11.2,69,52,33,30.64,30.49,13,2,18,0.00
2014-3-24,41.4,34.0,26.4,28.5,19.1,14.2,78,55,40,30.51,30.27,12,1,12,0.00
2014-3-25,36.0,30.7,24.9,29.1,19.0,12.4,89,64,39,30.44,30.27,21,2,21,0.00
2014-3-26,51.1,37.5,23.0,36.9,19.9,13.9,77,52,30,30.42,30.01,21,3,24,0.01
2014-3-27,57.9,48.4,39.6,52.5,42.8,36.0,88,81,71,30.01,29.51,28,5,28,0.35
2014-3-28,45.2,41.3,38.5,38.1,35.8,34.1,85,81,72,30.28,29.77,25,2,27,0.00
2014-3-29,49.9,41.3,36.9,36.6,34.0,32.8,86,76,59,30.37,30.26,11,1,11,0.00
2014-3-30,67.9,51.0,35.6,40.6,36.1,31.0,86,61,31,30.37,30.02,19,3,19,0.00
2014-3-31,71.5,58.6,49.6,49.8,43.2,38.5,82,58,36,30.04,29.73,25,5,25,0.04
2014-4-1,55.0,44.3,31.7,42.6,29.9,22.2,72,58,43,30.19,29.91,23,4,23,0.01
2014-4-2,48.4,45.1,41.9,46.5,40.1,33.4,93,83,66,30.17,29.92,17,4,18,0.51
2014-4-3,58.9,50.3,44.8,55.9,48.4,43.2,94,93,90,29.94,29.64,15,3,18,1.03
2014-4-4,59.0,42.9,37.2,56.1,35.4,30.3,90,75,64,30.26,29.66,27,7,33,0.00
2014-4-5,56.0,45.4,32.2,35.5,31.7,27.2,84,60,40,30.35,30.21,11,0,11,0.00
2014-4-6,61.2,50.7,40.7,40.3,36.2,31.4,80,60,34,30.21,29.95,15,2,15,0.00
2014-4-7,63.7,52.3,44.9,48.5,40.1,33.5,81,65,39,29.95,29.76,22,1,22,0.01
2014-4-8,61.4,55.7,48.0,44.3,37.2,31.1,78,51,36,30.13,29.85,16,2,16,0.00
2014-4-9,69.0,54.5,37.1,38.9,35.1,32.3,84,52,26,30.21,29.92,20,1,20,0.00
2014-4-10,68.7,61.5,50.6,48.8,39.7,29.9,53,45,38,30.09,29.79,21,2,21,0.00
2014-4-11,74.3,59.6,40.3,38.2,34.3,29.8,72,42,23,30.17,30.05,11,1,11,0.00
2014-4-12,84.0,70.5,57.5,61.7,53.8,35.1,79,57,39,30.06,29.67,20,3,22,0.00
2014-4-13,73.6,66.0,49.8,62.3,58.1,46.6,89,76,60,29.76,29.48,28,3,28,0.36
2014-4-14,49.7,38.5,33.5,46.6,33.8,25.3,96,83,68,30.24,29.61,20,4,20,0.08
2014-4-15,49.9,39.2,28.9,26.6,23.6,19.9,75,55,34,30.34,30.24,14,1,14,0.00
2014-4-16,61.4,49.6,38.0,34.1,29.5,25.5,64,47,33,30.25,30.03,27,4,27,0.00
2014-4-17,54.6,49.1,43.5,40.3,37.3,29.7,79,64,46,30.39,30.13,14,0,14,0.00
2014-4-18,69.5,53.6,37.0,42.8,38.0,33.4,90,60,32,30.45,30.30,10,0,10,0.00
2014-4-19,76.5,62.6,46.1,50.4,40.9,32.4,73,47,32,30.38,30.20,16,3,17,0.00
2014-4-20,81.8,70.2,59.0,54.7,49.4,43.8,58,48,35,30.24,30.07,15,1,15,0.00
2014-4-21,70.8,66.4,60.2,62.1,56.8,50.8,84,72,54,30.07,29.95,15,1,15,0.00
2014-4-22,67.5,57.0,46.8,50.6,39.4,34.8,76,54,32,30.18,30.03,15,1,15,0.00
2014-4-23,62.0,54.0,44.4,39.0,35.8,32.9,70,51,40,30.23,29.95,18,4,18,0.00
2014-4-24,65.8,58.4,52.5,55.3,45.3,35.6,91,64,44,29.96,29.64,22,4,22,0.29
2014-4-25,76.9,62.3,46.3,50.6,46.0,41.4,90,60,29,30.01,29.80,19,2,22,0.00
2014-4-26,82.3,69.3,57.1,52.9,46.4,42.6,63,45,27,29.96,29.78,16,1,16,0.00
2014-4-27,79.6,63.8,52.8,64.9,54.8,41.7,92,74,56,29.88,29.59,33,4,33,1.06
2014-4-28,75.3,63.9,55.7,61.7,55.3,46.2,92,74,55,29.63,29.37,23,2,23,1.01
2014-4-29,58.1,52.4,48.0,48.0,45.8,43.1,90,79,59,29.80,29.49,19,0,19,0.07
2014-4-30,53.9,46.7,41.8,44.7,40.2,36.5,89,78,63,29.98,29.80,22,2,22,0.01
2014-5-1,52.8,47.9,44.1,43.7,41.6,39.5,86,79,69,30.05,29.92,22,3,22,0.00
2014-5-2,65.0,55.0,47.0,44.7,43.1,41.1,85,66,43,30.05,29.86,18,2,18,0.00
2014-5-3,75.2,62.3,47.5,48.2,44.4,40.8,84,55,31,30.04,29.86,16,1,17,0.00
2014-5-4,71.8,62.2,50.5,48.1,45.6,42.1,82,56,41,30.11,29.93,32,4,32,0.00
2014-5-5,72.6,62.2,49.6,51.3,42.1,29.1,57,48,39,29.95,29.84,20,3,27,0.00
2014-5-6,82.7,68.0,53.0,63.6,52.3,41.7,67,58,46,29.93,29.68,18,1,19,0.00
2014-5-7,88.0,79.1,69.4,66.7,63.3,60.1,73,59,42,29.82,29.72,3,0,7,0.00
2014-5-8,86.1,74.6,68.0,68.3,64.8,62.0,84,72,49,29.91,29.79,26,0,26,0.07
2014-5-9,75.1,66.9,57.3,63.1,53.8,47.3,89,65,39,29.99,29.78,27,2,27,0.00
2014-5-10,81.8,67.5,54.2,60.6,50.6,42.6,86,59,26,30.04,29.85,26,2,26,0.15
2014-5-11,86.5,74.9,63.1,70.8,64.8,58.0,85,72,56,29.98,29.82,35,2,35,0.00
2014-5-12,89.1,76.9,63.1,72.8,68.1,60.6,92,76,51,29.96,29.77,48,2,48,1.34
2014-5-13,63.0,59.7,56.6,60.6,57.4,53.9,93,92,91,30.01,29.94,15,2,15,0.00
2014-5-15,58.1,50.6,44.5,46.9,42.4,35.2,89,75,44,30.19,30.11,19,0,19,0.02
2014-5-16,55.2,47.9,42.3,44.4,40.1,38.0,87,75,58,30.24,30.13,15,1,15,0.01
2014-5-17,64.7,52.9,39.4,44.0,37.5,31.4,92,60,34,30.29,30.23,12,0,13,0.00
2014-5-18,69.3,59.4,47.1,46.5,42.2,39.8,77,55,38,30.34,30.20,25,1,25,0.00
2014-5-19,78.5,66.7,55.7,62.7,53.0,43.3,72,61,55,30.22,29.86,24,2,24,0.00
2014-5-20,85.8,76.5,66.2,69.3,64.9,59.8,80,68,56,29.96,29.86,19,1,19,0.00
2014-5-21,90.8,80.1,70.4,71.5,67.4,57.0,82,66,50,30.07,29.89,21,1,22,0.00
2014-5-22,75.5,65.9,61.6,59.3,55.4,52.6,86,70,50,30.33,30.07,10,0,14,0.01
2014-5-23,83.2,68.9,53.9,60.9,52.2,45.8,92,60,30,30.26,30.17,21,1,21,0.00
2014-5-24,77.2,69.0,57.9,58.3,54.4,49.3,79,61,45,30.25,30.14,9,1,17,0.00
2014-5-25,73.7,67.0,63.8,64.1,58.3,54.3,80,74,61,30.17,30.13,20,1,23,0.00
2014-5-26,85.5,74.1,68.4,72.6,66.9,63.9,87,79,59,30.11,30.01,26,0,29,0.04
2014-5-27,86.7,75.2,66.9,69.2,65.1,63.1,89,73,46,30.08,29.96,15,1,15,0.01
2014-5-28,89.7,77.2,66.3,69.3,66.1,62.6,90,71,44,30.03,29.95,13,0,13,0.08
2014-5-29,85.7,76.3,68.9,71.6,68.2,65.4,92,77,52,30.09,30.00,17,1,17,0.00
2014-5-30,84.3,75.0,68.2,71.4,68.7,65.1,91,81,63,30.17,30.09,18,0,18,0.14
2014-5-31,88.8,76.9,70.6,73.5,68.8,66.3,90,77,50,30.18,30.06,16,0,16,0.13
2014-6-1,90.5,79.9,70.8,74.2,69.9,67.4,90,73,52,30.09,29.89,25,1,25,0.02
2014-6-2,85.7,78.3,71.5,69.1,67.5,65.1,82,70,53,30.01,29.81,27,2,27,0.00
2014-6-3,93.5,80.6,67.0,71.0,67.1,59.6,91,66,34,30.08,29.84,19,1,19,1.36
2014-6-4,83.0,71.6,65.8,70.2,66.0,61.4,94,83,62,29.95,29.65,18,1,18,1.23
2014-6-5,75.0,68.6,63.2,63.1,60.7,58.6,86,76,63,30.07,29.87,18,1,18,0.00
2014-6-6,83.1,73.2,61.4,67.9,64.3,58.7,92,75,58,30.06,29.96,11,0,11,0.00
2014-6-7,72.8,68.5,62.9,67.3,64.3,59.3,92,87,79,30.02,29.76,16,1,16,0.86
2014-6-8,76.7,67.3,59.4,65.5,61.6,57.1,93,83,67,30.13,29.98,10,0,10,0.01
2014-6-9,77.6,68.9,60.0,65.5,59.8,50.6,89,74,55,30.07,29.89,14,2,22,0.05
2014-6-10,67.8,65.0,61.1,64.2,61.0,54.8,92,87,72,29.89,29.80,22,1,22,0.07
2014-6-11,76.1,67.9,62.2,66.7,62.8,59.8,93,85,70,29.90,29.80,9,0,9,0.00
2014-6-12,74.8,67.8,61.4,67.8,62.3,56.8,89,83,71,30.04,29.87,15,0,15,0.00
2014-6-13,79.0,66.8,52.7,56.8,51.8,46.9,89,62,37,30.18,30.04,11,0,11,0.00
2014-6-14,79.7,69.8,58.2,56.7,53.4,51.3,79,58,40,30.14,29.92,30,2,34,0.00
2014-6-15,84.8,75.7,67.5,69.3,63.8,54.8,83,67,53,30.05,29.79,32,1,32,0.00
2014-6-16,89.1,79.3,69.2,77.7,71.3,65.7,90,77,60,30.11,29.88,20,1,20,0.53
2014-6-17,90.7,82.0,69.6,76.6,72.1,64.2,84,72,62,30.05,29.88,25,1,25,0.00
2014-6-18,94.0,84.4,75.7,77.2,73.9,70.9,86,72,56,29.99,29.92,27,1,27,0.00
2014-6-19,92.5,81.4,71.7,76.4,72.4,69.0,92,75,57,30.08,29.98,25,1,25,1.26
2014-6-20,75.0,72.4,71.6,69.9,69.4,69.2,92,90,84,30.06,30.01,0,0,0,0.00
2014-6-21,91.7,78.4,70.6,77.0,70.8,65.9,90,79,56,30.03,29.91,39,0,43,0.00
2014-6-22,86.8,73.5,67.2,76.5,68.1,63.9,92,84,68,29.98,29.87,23,1,23,0.46
2014-6-23,82.7,74.4,67.4,73.7,69.1,64.7,94,84,70,29.96,29.86,20,0,20,0.00
2014-6-24,88.8,78.3,68.5,69.9,67.2,64.2,92,71,46,30.03,29.94,21,0,21,0.00
2014-6-25,90.7,78.8,66.5,68.5,65.2,62.4,91,66,40,30.10,30.02,17,0,19,0.00
2014-6-26,90.0,80.3,69.8,72.4,68.8,63.8,83,69,52,30.09,29.95,16,1,19,0.00
2014-6-27,89.5,78.4,72.3,74.5,70.6,68.0,87,78,59,30.02,29.94,17,1,17,0.03
2014-6-28,87.1,77.7,70.5,75.5,71.5,66.3,89,82,66,30.02,29.91,19,1,19,0.28
2014-6-29,89.3,78.8,68.0,78.0,71.8,64.7,90,80,67,30.05,29.88,15,1,15,0.00
2014-6-30,92.5,84.4,72.6,80.2,75.9,64.9,89,76,56,29.92,29.65,21,1,22,0.13
2014-7-1,84.6,75.9,68.6,68.7,65.8,60.6,91,73,51,29.98,29.77,33,2,33,0.00
2014-7-2,72.8,65.5,61.2,60.7,56.9,54.1,84,74,63,30.19,29.98,27,1,27,0.00
2014-7-3,82.2,69.8,57.7,61.0,57.1,54.6,90,67,41,30.29,30.19,12,0,13,0.00
2014-7-4,82.6,71.3,58.1,61.9,57.0,53.5,90,63,42,30.38,30.29,20,1,20,0.00
2014-7-5,76.9,70.1,64.5,67.6,62.0,56.0,88,75,67,30.31,30.09,23,0,23,0.11
2014-7-6,87.4,78.7,71.1,73.9,69.6,66.4,86,74,61,30.10,29.87,33,2,34,0.01
2014-7-7,94.5,83.8,70.7,75.8,72.0,66.7,88,69,46,29.92,29.72,24,0,24,0.54
2014-7-8,84.0,75.0,66.9,68.9,64.9,61.6,92,73,50,30.00,29.76,34,3,34,0.23
2014-7-9,84.3,74.5,65.6,65.7,61.5,57.3,86,66,42,30.14,30.00,19,0,19,0.00
2014-7-10,85.0,73.7,61.2,63.2,59.7,56.3,88,64,41,30.23,30.13,29,1,29,0.00
2014-7-11,85.9,76.8,65.6,74.0,66.4,56.6,79,71,60,30.22,30.07,28,2,28,0.00
2014-7-12,92.4,84.3,77.8,77.2,74.5,72.8,85,73,59,30.12,29.96,21,0,21,0.00
2014-7-13,88.8,79.7,71.9,73.4,70.9,66.0,93,76,50,30.07,29.95,11,0,11,0.58
2014-7-14,81.8,74.3,63.5,72.6,64.6,51.1,90,73,46,30.10,29.96,28,0,28,0.00
2014-7-15,73.0,65.8,57.6,57.2,54.8,50.7,84,68,53,30.14,30.07,23,0,23,0.00
2014-7-16,79.6,68.1,55.5,58.7,55.8,52.6,92,68,42,30.15,30.10,12,0,12,0.00
2014-7-17,81.0,70.0,57.8,62.3,57.7,54.8,92,67,44,30.18,30.13,11,0,11,0.00
2014-7-18,82.4,73.5,62.6,63.7,59.2,57.0,85,62,44,30.21,30.12,15,0,18,0.00
2014-7-19,82.7,73.4,62.5,62.5,60.0,57.3,83,64,46,30.15,30.07,13,0,13,0.00
2014-7-20,85.6,76.2,66.0,67.2,64.1,60.2,83,67,48,30.12,30.04,14,0,19,0.00
2014-7-21,89.8,79.2,67.8,71.8,68.2,63.2,86,70,51,30.14,30.05,24,0,24,0.00
2014-7-22,90.9,79.7,73.1,80.6,73.5,67.6,89,81,71,30.15,30.02,22,0,22,0.01
2014-7-23,84.0,76.8,67.3,77.6,67.7,60.1,90,74,55,30.21,30.07,17,1,17,0.00
2014-7-24,80.7,71.0,59.6,61.3,58.3,52.8,89,66,48,30.25,30.05,11,0,13,0.00
2014-7-25,69.4,65.0,62.0,60.2,58.4,56.2,92,80,70,30.19,30.04,16,1,16,1.36
2014-7-26,89.0,79.1,72.7,78.3,73.7,66.9,89,84,70,29.93,29.86,16,1,16,0.03
2014-7-27,85.9,77.7,68.2,75.5,67.5,60.3,94,73,45,30.09,29.87,40,1,40,0.00
2014-7-28,78.3,69.9,62.7,64.0,59.6,56.3,89,71,48,30.23,30.09,13,0,15,0.00
2014-7-29,82.3,70.3,58.6,63.7,59.2,55.6,91,70,45,30.23,30.12,3,0,3,0.00
2014-7-30,83.5,72.3,60.0,64.4,60.7,57.0,92,69,42,30.17,30.12,0,0,0,0.00
2014-7-31,84.8,73.6,61.7,65.6,62.2,58.8,92,70,46,30.17,30.11,8,0,9,0.00
2014-8-1,84.7,73.6,65.7,69.0,64.5,60.8,87,74,53,30.19,30.11,18,0,18,0.00
2014-8-2,85.0,73.7,61.4,68.1,63.8,58.7,92,73,49,30.25,30.16,13,0,13,0.00
2014-8-3,88.3,76.4,62.9,68.5,65.0,59.9,92,70,46,30.25,30.12,17,0,17,0.00
2014-8-4,88.8,77.8,69.9,72.7,67.5,63.1,81,71,50,30.17,30.05,15,0,21,0.01
2014-8-5,86.7,78.0,70.2,73.7,70.1,66.2,88,78,61,30.11,30.04,10,0,10,0.00
2014-8-6,81.5,73.7,68.1,72.3,68.5,65.3,93,84,71,30.17,30.04,19,0,20,0.28
2014-8-7,73.4,69.8,67.6,69.3,67.3,64.9,94,92,85,30.08,29.95,33,1,33,2.53
2014-8-8,72.8,69.6,67.4,69.0,66.9,64.8,95,91,87,30.07,29.96,12,0,12,0.07
2014-8-9,78.4,71.7,67.6,72.2,67.4,64.9,92,86,76,30.11,30.05,11,0,11,0.01
2014-8-10,80.5,73.6,69.5,71.2,68.4,66.8,91,84,71,30.11,30.01,11,0,11,0.00
2014-8-11,84.3,74.9,67.9,73.3,67.2,62.8,93,78,59,30.05,29.98,12,0,12,0.00
2014-8-12,80.3,70.6,61.7,62.9,60.1,57.6,89,71,48,30.12,30.02,10,0,10,0.00
2014-8-13,84.3,71.2,57.5,62.9,59.8,54.9,92,70,44,30.20,30.12,3,0,3,0.00
2014-8-14,87.9,73.9,61.1,67.7,63.7,58.5,92,73,46,30.17,30.07,6,0,6,0.00
2014-8-15,77.5,72.6,67.8,70.8,67.7,64.2,91,85,77,30.11,29.98,6,0,6,0.10
2014-8-16,75.2,70.4,67.4,69.6,67.2,65.1,94,90,82,29.99,29.88,34,0,43,3.88
2014-8-17,75.9,70.9,67.9,71.2,68.3,66.0,95,91,84,30.01,29.90,6,0,6,0.03
2014-8-18,87.1,76.3,68.1,74.2,70.0,65.7,94,82,61,30.00,29.85,12,0,12,0.00
2014-8-19,87.7,76.9,67.7,76.0,70.4,63.9,92,81,64,29.92,29.82,27,1,27,0.10
2014-8-20,88.3,78.3,72.4,78.6,73.5,69.7,94,86,72,30.04,29.88,14,0,14,0.31
2014-8-21,94.2,83.6,74.5,78.8,74.6,69.2,87,75,60,30.00,29.93,20,1,20,0.00
2014-8-22,91.2,83.2,77.6,80.0,75.9,72.7,87,79,64,30.05,29.93,8,0,12,0.00
2014-8-23,95.0,84.9,78.0,79.6,76.6,72.7,91,77,58,30.04,29.91,12,0,12,0.00
2014-8-24,97.9,86.2,75.9,78.2,75.2,71.8,91,72,44,30.01,29.95,7,0,11,0.00
2014-8-25,96.8,87.0,78.2,77.5,75.3,72.5,85,70,50,30.07,29.97,14,1,14,0.00
2014-8-26,92.8,82.2,74.9,77.0,73.8,69.9,85,76,58,30.18,30.04,12,0,18,0.00
2014-8-27,82.9,77.2,71.0,74.6,71.7,67.6,89,84,75,30.22,30.11,11,0,15,0.02
2014-8-28,91.3,76.9,71.3,77.3,71.6,68.0,92,84,61,30.12,29.99,13,0,13,1.17
2014-8-29,90.1,78.1,72.3,73.8,70.3,66.8,90,79,49,30.01,29.86,29,0,29,0.10
2014-8-30,88.4,78.0,69.5,74.3,70.7,66.2,92,79,59,29.98,29.91,22,0,28,0.17
2014-8-31,92.5,80.2,69.6,75.8,71.2,66.9,92,76,53,30.01,29.85,12,0,12,0.00
2014-9-1,82.4,76.0,67.7,71.5,68.3,64.2,90,78,65,29.96,29.76,20,2,20,0.04
2014-9-2,85.3,76.9,70.8,70.8,68.4,66.5,90,76,56,30.06,29.93,12,0,12,0.00
2014-9-3,85.7,76.0,67.5,73.1,68.9,64.8,92,79,61,30.09,29.96,11,0,14,0.00
2014-9-4,95.4,84.5,74.8,77.2,73.9,69.4,86,72,53,30.02,29.95,13,1,18,0.00
2014-9-5,91.0,77.6,63.2,78.3,69.6,57.8,87,77,63,30.24,30.01,16,1,16,0.06
2014-9-6,76.8,65.8,57.7,59.6,55.9,52.6,90,72,45,30.31,30.20,10,0,16,0.00
2014-9-7,79.5,65.8,51.9,58.8,53.4,49.3,92,68,39,30.32,30.17,12,0,12,0.00
2014-9-8,83.8,71.4,59.0,64.8,59.5,52.9,83,67,50,30.19,30.00,13,0,14,0.00
2014-9-9,74.3,70.6,67.5,68.5,64.9,59.9,92,83,64,30.08,29.77,18,2,21,0.43
2014-9-10,76.2,71.5,59.8,72.7,68.0,55.1,94,89,78,30.05,29.66,18,1,28,3.99
2014-9-11,59.6,55.5,51.8,55.1,50.8,47.8,91,84,76,30.39,30.05,11,0,12,0.00
2014-9-12,55.2,51.3,45.8,50.5,47.1,42.6,92,85,79,30.48,30.34,10,0,12,0.00
2014-9-13,64.8,51.5,40.7,48.9,42.5,38.4,93,74,41,30.53,30.37,7,0,8,0.00
2014-9-14,71.5,58.0,43.7,53.2,47.4,40.8,92,70,46,30.41,30.23,9,0,12,0.00
2014-9-15,65.6,60.9,56.4,61.2,56.0,51.6,93,84,72,30.31,30.11,11,0,12,0.68
2014-9-16,71.3,58.3,47.2,54.5,50.1,44.7,93,76,48,30.35,30.16,8,0,9,0.00
2014-9-17,71.2,61.1,54.5,61.7,56.0,50.9,88,83,71,30.17,30.01,7,0,10,0.00
2014-9-18,74.3,63.1,52.1,58.8,55.1,49.8,93,77,53,30.18,30.08,10,0,11,0.00
2014-9-19,79.4,68.2,57.8,61.4,57.8,53.2,85,71,51,30.18,30.02,9,0,12,0.00
2014-9-20,84.5,72.9,65.2,73.5,67.1,60.3,90,83,68,30.09,29.93,15,0,16,0.00
2014-9-21,75.7,66.1,55.3,69.8,55.7,51.2,90,71,45,30.28,29.94,13,1,14,0.00
2014-9-22,75.3,61.2,49.2,54.5,50.9,46.7,92,72,43,30.42,30.28,11,0,13,0.00
2014-9-23,75.8,63.9,53.8,55.6,51.0,45.0,86,64,40,30.42,30.29,7,0,9,0.00
2014-9-24,79.5,68.1,56.0,55.5,52.9,50.3,83,60,38,30.37,30.27,9,0,9,0.00
2014-9-25,80.6,69.6,63.6,63.2,58.4,52.7,84,69,46,30.35,30.23,5,0,6,0.01
2014-9-26,86.5,72.8,59.2,65.4,61.2,56.2,92,69,43,30.29,30.20,4,0,9,0.00
2014-9-27,84.5,72.8,60.9,64.0,60.9,57.1,88,69,43,30.27,30.17,10,0,12,0.00
2014-9-28,88.8,72.4,60.1,64.4,60.2,57.8,93,69,37,30.23,30.12,7,0,10,0.00
2014-9-29,87.3,72.1,59.0,66.1,61.0,56.4,92,71,40,30.15,30.02,6,0,7,0.00
2014-9-30,75.5,65.1,59.0,64.9,60.1,56.4,93,84,68,30.07,29.95,15,1,15,0.00
2014-10-1,67.7,63.3,58.2,64.1,59.8,54.3,94,88,78,30.02,29.85,18,1,23,2.74
2014-10-2,69.3,65.2,61.9,64.9,62.9,59.9,94,92,85,29.94,29.70,19,1,20,1.27
2014-10-3,62.1,52.4,43.6,60.4,45.9,34.6,94,79,58,30.13,29.69,18,2,24,0.63
2014-10-4,53.9,45.6,37.8,37.5,34.6,30.9,82,66,49,30.08,29.96,23,2,24,0.00
2014-10-5,69.0,54.2,41.5,48.8,42.9,36.7,84,68,44,29.96,29.76,7,0,10,0.00
2014-10-6,68.6,59.9,51.2,51.2,47.9,42.3,87,67,40,29.83,29.73,18,2,23,0.01
2014-10-7,74.6,62.6,52.6,57.8,49.2,41.3,90,66,32,30.04,29.76,25,1,26,0.02
2014-10-8,74.5,58.8,46.0,51.5,46.8,42.6,90,68,36,30.23,30.05,9,0,9,0.00
2014-10-9,60.5,57.3,53.0,53.3,50.9,45.7,89,80,59,30.22,30.10,14,1,14,0.13
2014-10-10,59.2,55.4,51.0,53.2,44.4,40.6,88,67,52,30.26,30.17,13,1,13,0.00
2014-10-11,64.0,52.2,44.1,45.4,41.4,37.3,89,69,41,30.34,30.19,10,0,11,0.00
2014-10-12,57.1,52.4,46.8,55.1,48.6,41.1,93,87,74,30.19,29.91,9,0,9,0.02
2014-10-13,68.8,62.0,57.1,65.9,59.5,55.1,95,91,83,29.91,29.48,17,1,17,1.40
2014-10-14,62.4,54.6,51.6,59.5,52.3,49.4,93,92,90,29.85,29.48,18,0,18,0.37
2014-10-15,64.3,55.0,49.4,52.2,49.0,46.0,93,81,60,30.00,29.84,14,0,14,0.01
2014-10-16,74.4,58.8,44.5,54.8,48.4,42.3,98,72,38,29.99,29.79,11,0,14,0.00
2014-10-17,65.5,58.2,50.9,52.5,48.2,44.3,79,70,55,30.12,29.79,16,1,16,0.00
2014-10-18,56.7,50.9,44.7,47.0,44.2,40.8,94,78,65,30.33,30.11,10,0,10,0.00
2014-10-19,65.7,52.2,39.4,49.1,44.4,36.9,92,76,53,30.33,30.06,15,0,15,0.00
2014-10-20,72.0,60.3,50.9,51.5,49.1,46.1,87,69,43,30.12,30.00,12,0,13,0.00
2014-10-21,65.3,53.9,43.0,47.4,44.4,40.6,92,72,48,30.30,30.11,12,1,12,0.00
2014-10-22,64.6,52.4,42.7,46.1,43.3,39.4,92,72,49,30.42,30.27,12,1,12,0.00
2014-10-23,60.6,54.2,48.4,54.0,48.1,42.6,87,80,69,30.29,30.15,12,0,12,0.00
2014-10-24,71.8,60.5,54.5,62.5,56.3,52.2,94,86,70,30.19,30.01,12,0,12,0.00
2014-10-25,79.1,64.2,54.8,60.1,54.4,44.3,93,74,39,30.14,30.04,6,0,6,0.00
2014-10-26,75.7,63.0,47.9,57.7,45.4,37.6,76,54,35,30.13,29.80,13,1,13,0.00
2014-10-27,79.3,70.5,66.7,63.3,60.9,56.3,80,72,54,29.81,29.62,17,1,18,0.00
2014-10-28,67.1,58.4,48.5,56.8,39.9,29.9,72,52,29,30.20,29.81,23,2,26,0.00
2014-10-29,57.1,47.5,39.8,39.8,37.0,34.9,86,68,49,30.31,30.20,14,1,15,0.00
2014-10-30,61.2,49.0,39.7,48.0,41.8,35.9,87,77,61,30.26,30.08,18,0,18,0.03
2014-10-31,49.1,41.6,32.6,43.8,28.8,20.7,85,61,42,30.56,30.21,21,1,23,0.00
2014-11-1,48.1,36.5,25.1,29.5,26.0,21.6,88,67,45,30.63,30.49,6,0,7,0.00
2014-11-2,53.7,45.2,36.8,33.2,30.0,27.2,71,56,41,30.49,30.21,19,2,19,0.00
2014-11-3,71.5,59.6,46.7,57.4,44.6,29.0,88,58,49,30.23,30.06,23,1,23,0.02
2014-11-4,60.2,51.3,44.9,56.8,45.7,40.1,91,81,69,30.28,30.04,15,1,15,0.01
2014-11-5,65.2,52.9,41.3,45.1,38.6,32.4,88,62,30,30.28,30.07,17,1,17,0.00
2014-11-6,52.7,45.6,34.6,44.9,35.0,29.9,83,67,48,30.42,30.07,29,2,29,0.00
2014-11-7,55.2,43.5,30.2,36.4,32.3,27.3,90,67,44,30.40,29.88,14,0,14,0.00
2014-11-8,51.4,46.3,37.1,41.9,33.7,29.3,80,62,44,30.19,29.88,23,1,23,0.00
2014-11-9,63.0,49.1,35.7,40.9,35.9,30.6,83,62,42,30.15,29.83,22,1,22,0.00
2014-11-10,72.5,59.3,48.4,48.2,43.7,37.7,74,57,41,29.83,29.51,18,1,21,0.00
2014-11-11,48.3,33.6,29.8,39.8,27.8,22.3,88,79,73,30.44,29.74,26,2,28,0.02
2014-11-12,29.7,26.7,23.6,22.4,16.0,12.4,74,64,55,30.58,30.43,17,1,18,0.00
2014-11-13,28.5,25.0,20.3,21.0,17.1,13.3,84,72,60,30.59,30.56,4,0,10,0.00
2014-11-14,33.9,24.9,18.0,18.7,15.8,14.1,87,69,47,30.61,30.49,3,0,12,0.00
2014-11-15,36.6,29.1,21.6,27.1,20.1,13.9,88,70,48,30.52,30.31,6,0,6,0.00
2014-11-16,31.5,27.8,18.3,28.5,24.0,11.4,90,85,74,30.31,30.17,10,0,10,0.00
2014-11-17,23.9,19.3,16.7,14.5,9.4,5.3,82,66,46,30.36,30.17,23,1,23,0.00
2014-11-18,27.6,20.4,12.1,17.5,9.6,5.7,77,63,48,30.43,30.10,22,3,23,0.00
2014-11-19,35.1,30.4,26.9,25.6,19.9,15.4,70,65,57,30.31,29.94,19,1,19,0.00
2014-11-20,36.3,27.5,21.5,18.9,16.2,13.5,75,63,44,30.49,30.29,16,0,16,0.00
2014-11-21,40.1,30.7,20.0,34.0,20.1,12.4,83,65,49,30.53,30.23,15,1,15,0.03
2014-11-22,59.3,52.8,40.1,52.6,47.9,34.4,92,83,78,30.23,29.87,21,0,21,0.00
2014-11-23,54.6,52.3,43.7,51.7,49.7,41.8,94,91,86,29.87,29.31,15,1,16,0.60
2014-11-24,43.6,34.8,32.7,41.5,29.7,25.3,93,82,73,30.10,29.36,27,6,27,0.12
2014-11-25,38.0,30.8,26.1,25.4,22.7,20.1,84,72,57,30.33,30.10,18,1,20,0.00
2014-11-26,34.7,31.8,28.6,30.9,27.7,22.6,92,85,76,30.42,30.08,14,1,15,0.00
2014-11-27,29.4,25.0,18.4,26.7,19.2,11.0,92,79,67,30.64,30.42,14,1,15,0.00
2014-11-28,50.1,37.1,21.0,38.6,29.4,14.3,87,74,60,30.53,29.87,11,2,18,0.05
2014-11-29,65.8,53.6,44.3,51.6,45.2,37.3,85,74,58,29.87,29.68,13,0,13,0.00
2014-11-30,57.3,37.6,21.7,47.5,31.6,15.9,89,79,67,30.54,29.71,15,0,16,0.00
2014-12-1,25.2,20.8,17.3,15.9,10.3,7.3,78,64,48,30.85,30.54,14,0,15,0.00
2014-12-2,32.4,25.6,15.3,25.9,19.5,11.1,86,78,64,30.64,30.23,6,0,11,0.00
2014-12-3,40.3,32.5,27.8,26.0,23.6,20.6,86,71,52,30.51,30.26,12,0,12,0.00
2014-12-4,35.9,33.6,30.1,33.6,27.4,19.9,93,78,64,30.49,30.29,12,0,12,0.00
2014-12-5,40.5,37.9,35.4,38.9,36.2,33.6,94,94,93,30.37,30.20,9,0,9,0.60
2014-12-6,37.6,34.4,29.3,35.9,32.4,27.0,94,92,88,30.74,30.37,11,0,11,0.00
2014-12-7,38.0,33.6,27.6,34.2,30.7,25.6,92,89,84,30.74,30.33,14,1,14,0.00
2014-12-8,47.1,40.7,35.2,41.9,36.6,28.1,93,85,74,30.37,30.21,16,1,16,0.03
2014-12-9,35.2,32.7,31.0,29.8,27.8,26.4,87,82,75,30.55,30.34,14,0,14,0.00
2014-12-10,35.2,33.6,32.0,29.9,28.8,27.6,89,83,77,30.53,30.41,9,0,9,0.00
2014-12-11,36.6,33.2,30.4,30.4,27.8,26.1,88,81,75,30.47,30.39,9,0,9,0.00
2014-12-12,47.2,40.7,34.6,41.0,35.7,30.0,87,82,78,30.48,30.36,4,0,9,0.00
2014-12-13,51.7,45.7,39.5,47.0,42.5,36.2,92,89,84,30.36,30.19,8,0,8,0.00
2014-12-14,60.2,52.3,48.0,54.1,49.2,45.8,98,89,79,30.19,29.98,17,2,17,0.00
2014-12-15,50.9,49.1,41.5,48.3,46.4,39.1,92,90,85,30.00,29.68,26,4,26,0.24
2014-12-16,42.0,32.9,28.6,39.8,29.0,23.8,92,85,79,30.43,29.80,21,4,22,0.02
2014-12-17,30.6,26.5,22.6,24.6,21.7,18.8,92,82,73,30.50,30.41,7,0,9,0.00
2014-12-18,31.2,28.6,26.3,27.6,25.2,23.0,90,87,84,30.45,30.36,4,0,5,0.00
2014-12-19,34.4,31.6,28.4,31.4,28.0,25.6,90,86,79,30.45,30.37,6,0,6,0.01
2014-12-20,39.2,36.1,33.1,35.9,32.9,29.5,89,88,86,30.37,30.30,10,0,12,0.02
2014-12-21,46.1,41.4,38.8,39.6,37.1,35.7,89,85,75,30.31,29.99,18,2,22,0.00
2014-12-22,46.9,43.0,39.0,45.3,39.8,35.0,94,89,78,29.99,29.57,10,2,16,0.40
2014-12-23,47.4,42.9,38.7,44.8,38.1,35.0,94,83,69,29.90,29.59,28,1,28,0.00
2014-12-24,39.1,37.3,35.9,35.6,34.0,31.6,91,88,83,29.94,29.77,18,1,18,0.00
2014-12-25,51.0,42.3,33.8,36.8,33.6,30.6,88,72,54,30.06,29.94,17,1,17,0.00
2014-12-26,57.2,49.5,41.6,48.6,42.3,36.1,86,76,66,30.12,30.03,19,1,19,0.00
2014-12-27,52.4,39.7,30.6,48.3,34.6,25.0,89,82,76,30.36,30.05,14,1,20,0.00
2014-12-28,38.5,30.9,26.7,25.9,24.1,22.6,86,76,57,30.39,30.30,10,0,10,0.00
2014-12-29,38.5,30.2,22.7,30.0,24.6,20.2,91,80,61,30.67,30.36,16,1,16,0.00
2014-12-30,26.5,17.2,12.6,21.5,7.9,2.5,84,68,44,30.93,30.67,17,1,17,0.00
2014-12-31,26.0,16.4,7.9,9.7,3.9,1.2,76,59,37,30.88,30.44,19,2,19,0.00
2015-1-1,34.2,26.5,18.6,22.5,14.9,9.3,74,62,51,30.44,30.25,19,2,19,0.00
2015-1-2,38.5,33.1,26.7,32.4,25.5,21.7,90,74,60,30.43,30.18,6,0,6,0.07